Ana Sayfa
METAR-TAF:

METAR-TAF

Havaalanları :

Mumbai, Hindistan

Enlem: 19-07N, Boylam: 072-51E, yükseklik: 8 m

Güncel hava durumu gözlemi

Rapor saat 22:00 UTC de 32 dakika önce yapıldı.
Rüzgar batıdan 3 kt
Sıcaklık 29°C
Nem 79%
Basınç 1006 hPa
Görüş mesafesi: 4000 m
2000 ft yükseklikte parçalı bulutlu
Toz Pusu

METAR: VABB 212200Z 27003KT 4000 HZ SCT020 29/25 Q1006 NOSIG

Saat: 04:02 (22:32 UTC)

Tahmin

Rapor saat 20:00 UTC de 2 saat ve 32 dakika önce yapıldı.
Ayın 21'si saat 21 UTC'den ayın 22'si saat 06 UTC'ye kadar geçerli Tahmin
Rüzgar değişken yönden 3 kt
Görüş mesafesi: 3000 m
2000 ft yükseklikte parçalı bulutlu
Toz Pusu, Duman
Dönüşüyor
ayın 22'si saat 03 UTC'den ayın 22'si saat 05 UTC'ye kadar
Rüzgar batıdan 8 kt
Görüş mesafesi: 4000 m
Toz Pusu, Duman

TAF: VABB 212000Z 2121/2206 VRB03KT 3000 HZ FU SCT020 BECMG 2203/2205 26008KT 4000 HZ FU

4.000'den fazla havaalanı için hava durumu gözlemleri ve tahminleri (METAR ve TAF raporları).

Kullanılabilir istasyonlar harita üzerinde sarı ve kırmızı noktalarla gösterilir.

İstasyonun adını görmek için fareyi noktanın üzerinde gezdirin.

Sonrasında hava gözlem ve tahminlerini görmek için tıklayın.

Haritayı değiştirmek için: yaklaştırmak için siyah artı işaretli yeşil düğmeye ve uzaklaştırmak için de eksi işaretli düğmeye hızla tıklayın; bitişik haritalar için yeşil okları kullanın.


METAR-TAF: